createdAt,value
2019-01-28T00:00:33.489Z,1001.7
2019-01-28T00:01:33.475Z,1001.67
2019-01-28T00:02:33.463Z,1001.65
2019-01-28T00:03:33.449Z,1001.72
2019-01-28T00:04:33.458Z,1001.7
2019-01-28T00:05:33.423Z,1001.71
2019-01-28T00:06:33.410Z,1001.69
2019-01-28T00:07:33.396Z,1001.71
2019-01-28T00:08:33.386Z,1001.69
2019-01-28T00:09:33.369Z,1001.76
2019-01-28T00:10:33.356Z,1001.78
2019-01-28T00:11:33.343Z,1001.72
2019-01-28T00:12:33.330Z,1001.75
2019-01-28T00:13:33.316Z,1001.73
2019-01-28T00:14:33.302Z,1001.68
2019-01-28T00:15:33.289Z,1001.73
2019-01-28T00:16:33.277Z,1001.71
2019-01-28T00:17:33.263Z,1001.72
2019-01-28T00:18:33.253Z,1001.69
2019-01-28T00:19:33.247Z,1001.7
2019-01-28T00:20:33.223Z,1001.66
2019-01-28T00:21:33.208Z,1001.67
2019-01-28T00:22:33.195Z,1001.68
2019-01-28T00:23:33.184Z,1001.62
2019-01-28T00:24:33.169Z,1001.58
2019-01-28T00:25:33.156Z,1001.59
2019-01-28T00:26:33.143Z,1001.57
2019-01-28T00:27:33.129Z,1001.6
2019-01-28T00:28:33.116Z,1001.58
2019-01-28T00:29:33.103Z,1001.61
2019-01-28T00:30:33.090Z,1001.6
2019-01-28T00:31:33.077Z,1001.61
2019-01-28T00:32:33.063Z,1001.61
2019-01-28T00:33:33.050Z,1001.65
2019-01-28T00:34:33.036Z,1001.64
2019-01-28T00:35:33.022Z,1001.64
2019-01-28T00:36:33.010Z,1001.59
2019-01-28T00:37:32.999Z,1001.63
2019-01-28T00:38:32.984Z,1001.59
2019-01-28T00:39:32.971Z,1001.59
2019-01-28T00:40:32.957Z,1001.63
2019-01-28T00:41:32.944Z,1001.61
2019-01-28T00:42:32.931Z,1001.63
2019-01-28T00:43:32.917Z,1001.61
2019-01-28T00:44:32.904Z,1001.64
2019-01-28T00:45:32.890Z,1001.58
2019-01-28T00:46:32.877Z,1001.57
2019-01-28T00:47:32.863Z,1001.52
2019-01-28T00:48:32.851Z,1001.54
2019-01-28T00:49:32.838Z,1001.49
2019-01-28T00:50:32.824Z,1001.49
2019-01-28T00:51:32.811Z,1001.53
2019-01-28T00:52:32.799Z,1001.48
2019-01-28T00:53:32.785Z,1001.51
2019-01-28T00:54:32.772Z,1001.56
2019-01-28T00:55:32.758Z,1001.53
2019-01-28T00:56:32.745Z,1001.52
2019-01-28T00:57:32.731Z,1001.56
2019-01-28T00:58:32.718Z,1001.52
2019-01-28T00:59:32.706Z,1001.56
2019-01-28T01:00:32.693Z,1001.57
2019-01-28T01:01:32.682Z,1001.59
2019-01-28T01:02:32.667Z,1001.6
2019-01-28T01:03:32.654Z,1001.63
2019-01-28T01:04:32.639Z,1001.64
2019-01-28T01:05:32.627Z,1001.63
2019-01-28T01:06:32.614Z,1001.63
2019-01-28T01:07:32.853Z,1001.65
2019-01-28T01:08:32.587Z,1001.67
2019-01-28T01:09:32.574Z,1001.67
2019-01-28T01:10:32.561Z,1001.69
2019-01-28T01:11:32.549Z,1001.69
2019-01-28T01:12:32.535Z,1001.72
2019-01-28T01:13:32.522Z,1001.73
2019-01-28T01:14:32.509Z,1001.72
2019-01-28T01:15:32.497Z,1001.75
2019-01-28T01:16:32.481Z,1001.77
2019-01-28T01:17:32.469Z,1001.77
2019-01-28T01:18:32.456Z,1001.77
2019-01-28T01:19:32.443Z,1001.77
2019-01-28T01:20:32.430Z,1001.78
2019-01-28T01:21:32.420Z,1001.8
2019-01-28T01:22:32.404Z,1001.81
2019-01-28T01:23:32.389Z,1001.83
2019-01-28T01:24:32.378Z,1001.8
2019-01-28T01:25:32.365Z,1001.83
2019-01-28T01:26:32.353Z,1001.87
2019-01-28T01:27:32.339Z,1001.92
2019-01-28T01:28:32.326Z,1001.94
2019-01-28T01:29:32.313Z,1001.96
2019-01-28T01:30:32.299Z,1001.93
2019-01-28T01:31:32.286Z,1001.96
2019-01-28T01:32:32.274Z,1001.94
2019-01-28T01:33:32.261Z,1001.91
2019-01-28T01:34:32.247Z,1001.91
2019-01-28T01:35:32.234Z,1001.95
2019-01-28T01:36:32.220Z,1001.9
2019-01-28T01:37:32.208Z,1001.92
2019-01-28T01:38:32.194Z,1001.88
2019-01-28T01:39:32.181Z,1001.9
2019-01-28T01:40:32.168Z,1001.94
2019-01-28T01:41:32.155Z,1001.92
2019-01-28T01:42:32.142Z,1001.89
2019-01-28T01:43:32.128Z,1001.89
2019-01-28T01:44:32.116Z,1001.91
2019-01-28T01:45:32.102Z,1001.95
2019-01-28T01:46:32.090Z,1001.94
2019-01-28T01:47:32.076Z,1002.01
2019-01-28T01:48:32.061Z,1002.02
2019-01-28T01:49:32.049Z,1002.02
2019-01-28T01:50:32.036Z,1002.04
2019-01-28T01:51:32.023Z,1002.01
2019-01-28T01:52:32.011Z,1002.03
2019-01-28T01:53:31.997Z,1002.03
2019-01-28T01:54:31.984Z,1002.02
2019-01-28T01:55:31.971Z,1002.07
2019-01-28T01:56:31.957Z,1002.08
2019-01-28T01:57:31.944Z,1002.09
2019-01-28T01:58:31.932Z,1002.11
2019-01-28T01:59:31.918Z,1002.14
2019-01-28T02:00:31.904Z,1002.07
2019-01-28T02:01:31.891Z,1002.13
2019-01-28T02:02:33.379Z,1002.16
2019-01-28T02:03:31.868Z,1002.14
2019-01-28T02:04:31.852Z,1002.13
2019-01-28T02:05:31.839Z,1002.17
2019-01-28T02:06:31.828Z,1002.19
2019-01-28T02:07:31.812Z,1002.22
2019-01-28T02:08:31.799Z,1002.24
2019-01-28T02:09:31.786Z,1002.3
2019-01-28T02:10:31.773Z,1002.27
2019-01-28T02:11:31.762Z,1002.27
2019-01-28T02:12:31.746Z,1002.29
2019-01-28T02:13:31.732Z,1002.31
2019-01-28T02:14:31.719Z,1002.36
2019-01-28T02:15:31.707Z,1002.38
2019-01-28T02:16:31.693Z,1002.36
2019-01-28T02:17:31.682Z,1002.34
2019-01-28T02:18:31.668Z,1002.37
2019-01-28T02:19:31.654Z,1002.29
2019-01-28T02:20:31.641Z,1002.31
2019-01-28T02:21:31.627Z,1002.26
2019-01-28T02:22:31.615Z,1002.2
2019-01-28T02:23:31.604Z,1002.2
2019-01-28T02:24:31.590Z,1002.22
2019-01-28T02:25:31.575Z,1002.22
2019-01-28T02:26:31.562Z,1002.24
2019-01-28T02:27:31.549Z,1002.24
2019-01-28T02:28:31.536Z,1002.24
2019-01-28T02:29:31.523Z,1002.29
2019-01-28T02:30:31.509Z,1002.28
2019-01-28T02:31:31.497Z,1002.35
2019-01-28T02:32:31.483Z,1002.4
2019-01-28T02:33:31.470Z,1002.41
2019-01-28T02:34:31.457Z,1002.41
2019-01-28T02:35:31.446Z,1002.36
2019-01-28T02:36:31.429Z,1002.32
2019-01-28T02:37:31.418Z,1002.37
2019-01-28T02:38:31.403Z,1002.36
2019-01-28T02:39:31.392Z,1002.46
2019-01-28T02:40:31.378Z,1002.45
2019-01-28T02:41:31.366Z,1002.46
2019-01-28T02:42:31.353Z,1002.4
2019-01-28T02:43:31.338Z,1002.46
2019-01-28T02:44:31.327Z,1002.42
2019-01-28T02:45:31.312Z,1002.43
2019-01-28T02:46:31.300Z,1002.45
2019-01-28T02:47:31.286Z,1002.44
2019-01-28T02:48:31.361Z,1002.5
2019-01-28T02:49:31.261Z,1002.48
2019-01-28T02:50:31.248Z,1002.46
2019-01-28T02:51:31.233Z,1002.58
2019-01-28T02:52:31.221Z,1002.58
2019-01-28T02:53:31.208Z,1002.56
2019-01-28T02:54:31.194Z,1002.58
2019-01-28T02:55:31.181Z,1002.66
2019-01-28T02:56:31.167Z,1002.67
2019-01-28T02:57:31.154Z,1002.7
2019-01-28T02:58:31.144Z,1002.73
2019-01-28T02:59:31.129Z,1002.7
2019-01-28T03:00:31.117Z,1002.7
2019-01-28T03:01:31.103Z,1002.75
2019-01-28T03:02:31.090Z,1002.71
2019-01-28T03:03:31.077Z,1002.74
2019-01-28T03:04:31.067Z,1002.71
2019-01-28T03:05:31.050Z,1002.75
2019-01-28T03:06:31.038Z,1002.75
2019-01-28T03:07:31.025Z,1002.79
2019-01-28T03:08:31.011Z,1002.81
2019-01-28T03:09:30.998Z,1002.84
2019-01-28T03:10:30.985Z,1002.87
2019-01-28T03:11:30.971Z,1002.9
2019-01-28T03:12:30.958Z,1002.94
2019-01-28T03:13:30.946Z,1002.93
2019-01-28T03:14:30.933Z,1003.01
2019-01-28T03:15:30.921Z,1002.99
2019-01-28T03:16:30.906Z,1003.04
2019-01-28T03:17:30.893Z,1003.01
2019-01-28T03:18:30.880Z,1003.04
2019-01-28T03:19:30.867Z,1003.07
2019-01-28T03:20:30.865Z,1003.12
2019-01-28T03:21:30.840Z,1003.1
2019-01-28T03:22:30.828Z,1003.15
2019-01-28T03:23:30.814Z,1003.1
2019-01-28T03:24:30.800Z,1003.18
2019-01-28T03:25:30.786Z,1003.18
2019-01-28T03:26:30.774Z,1003.18
2019-01-28T03:27:30.760Z,1003.21
2019-01-28T03:28:30.748Z,1003.24
2019-01-28T03:29:30.735Z,1003.25
2019-01-28T03:30:30.721Z,1003.32
2019-01-28T03:31:30.712Z,1003.36
2019-01-28T03:32:30.703Z,1003.4
2019-01-28T03:33:30.683Z,1003.43
2019-01-28T03:34:30.668Z,1003.47
2019-01-28T03:35:30.654Z,1003.49
2019-01-28T03:36:30.723Z,1003.54
2019-01-28T03:37:30.627Z,1003.56
2019-01-28T03:38:30.614Z,1003.58
2019-01-28T03:39:30.608Z,1003.64
2019-01-28T03:40:30.589Z,1003.64
2019-01-28T03:41:30.575Z,1003.67
2019-01-28T03:42:30.559Z,1003.67
2019-01-28T03:43:30.547Z,1003.68
2019-01-28T03:44:30.534Z,1003.73
2019-01-28T03:45:30.521Z,1003.76
2019-01-28T03:46:30.507Z,1003.79
2019-01-28T03:47:30.494Z,1003.82
2019-01-28T03:48:30.481Z,1003.84
2019-01-28T03:49:30.469Z,1003.85
2019-01-28T03:50:30.453Z,1003.9
2019-01-28T03:51:30.440Z,1003.92
2019-01-28T03:52:30.426Z,1003.99
2019-01-28T03:53:30.412Z,1004.01
2019-01-28T03:54:30.398Z,1004.05
2019-01-28T03:55:30.386Z,1004.04
2019-01-28T03:56:30.371Z,1004.08
2019-01-28T03:57:30.359Z,1004.06
2019-01-28T03:58:30.345Z,1004.04
2019-01-28T03:59:30.332Z,1004.08
2019-01-28T04:00:30.316Z,1004.09
2019-01-28T04:01:30.307Z,1004.18
2019-01-28T04:02:30.290Z,1004.14
2019-01-28T04:03:30.282Z,1004.12
2019-01-28T04:04:30.262Z,1004.17
2019-01-28T04:05:30.259Z,1004.2
2019-01-28T04:06:30.236Z,1004.24
2019-01-28T04:07:30.223Z,1004.24
2019-01-28T04:08:30.208Z,1004.3
2019-01-28T04:09:30.195Z,1004.29
2019-01-28T04:10:30.181Z,1004.28
2019-01-28T04:11:30.167Z,1004.32
2019-01-28T04:12:30.153Z,1004.34
2019-01-28T04:13:30.141Z,1004.38
2019-01-28T04:14:30.125Z,1004.41
2019-01-28T04:15:30.112Z,1004.41
2019-01-28T04:16:30.099Z,1004.42
2019-01-28T04:17:30.085Z,1004.44
2019-01-28T04:18:30.071Z,1004.46
2019-01-28T04:19:30.056Z,1004.5
2019-01-28T04:20:30.049Z,1004.5
2019-01-28T04:21:30.030Z,1004.46
2019-01-28T04:22:30.015Z,1004.56
2019-01-28T04:23:30.002Z,1004.55
2019-01-28T04:24:29.987Z,1004.61
2019-01-28T04:25:29.979Z,1004.68
2019-01-28T04:26:29.959Z,1004.68
2019-01-28T04:27:29.945Z,1004.7
2019-01-28T04:28:29.933Z,1004.75
2019-01-28T04:29:29.918Z,1004.77
2019-01-28T04:30:29.905Z,1004.78
2019-01-28T04:31:29.893Z,1004.77
2019-01-28T04:32:29.878Z,1004.82
2019-01-28T04:33:29.863Z,1004.77
2019-01-28T04:34:29.850Z,1004.83
2019-01-28T04:35:29.837Z,1004.87
2019-01-28T04:36:29.826Z,1004.89
2019-01-28T04:37:29.812Z,1004.83
2019-01-28T04:38:29.793Z,1004.84
2019-01-28T04:39:29.780Z,1004.86
2019-01-28T04:40:29.767Z,1004.91
2019-01-28T04:41:29.754Z,1004.91
2019-01-28T04:42:29.738Z,1004.94
2019-01-28T04:43:29.727Z,1004.92
2019-01-28T04:44:29.718Z,1004.94
2019-01-28T04:45:29.698Z,1004.98
2019-01-28T04:46:29.684Z,1005
2019-01-28T04:47:29.670Z,1005.03
2019-01-28T04:48:29.655Z,1005.03
2019-01-28T04:49:29.642Z,1005.07
2019-01-28T04:50:29.629Z,1005.06
2019-01-28T04:51:30.762Z,1005.13
2019-01-28T04:52:29.600Z,1005.11
2019-01-28T04:53:29.587Z,1005.11
2019-01-28T04:54:29.573Z,1005.13
2019-01-28T04:55:29.560Z,1005.1
2019-01-28T04:56:29.545Z,1005.17
2019-01-28T04:57:29.531Z,1005.17
2019-01-28T04:58:29.518Z,1005.24
2019-01-28T04:59:29.503Z,1005.2
2019-01-28T05:00:29.489Z,1005.3
2019-01-28T05:01:29.482Z,1005.31
2019-01-28T05:02:29.461Z,1005.29
2019-01-28T05:03:29.447Z,1005.26
2019-01-28T05:04:29.434Z,1005.29
2019-01-28T05:05:29.424Z,1005.33
2019-01-28T05:06:29.408Z,1005.34
2019-01-28T05:07:29.392Z,1005.41
2019-01-28T05:08:29.378Z,1005.4
2019-01-28T05:09:29.363Z,1005.36
2019-01-28T05:10:29.348Z,1005.4
2019-01-28T05:11:29.335Z,1005.37
2019-01-28T05:12:29.322Z,1005.41
2019-01-28T05:13:29.308Z,1005.38
2019-01-28T05:14:29.293Z,1005.38
2019-01-28T05:15:29.281Z,1005.35
2019-01-28T05:16:29.265Z,1005.34
2019-01-28T05:17:29.256Z,1005.32
2019-01-28T05:18:29.236Z,1005.34
2019-01-28T05:19:30.712Z,1005.28
2019-01-28T05:20:29.209Z,1005.28
2019-01-28T05:21:29.194Z,1005.18
2019-01-28T05:22:29.181Z,1005.21
2019-01-28T05:23:29.167Z,1005.18
2019-01-28T05:24:29.153Z,1005.13
2019-01-28T05:25:29.139Z,1005.12
2019-01-28T05:26:29.123Z,1005.14
2019-01-28T05:27:29.113Z,1005.05
2019-01-28T05:28:29.098Z,1005.04
2019-01-28T05:29:29.084Z,1005.05
2019-01-28T05:30:29.069Z,1005.09
2019-01-28T05:31:29.056Z,1005.07
2019-01-28T05:32:29.041Z,1005.08
2019-01-28T05:33:29.027Z,1005.05
2019-01-28T05:34:29.012Z,1005.05
2019-01-28T05:35:28.999Z,1005
2019-01-28T05:36:28.991Z,1004.96
2019-01-28T05:37:28.974Z,1004.95
2019-01-28T05:38:28.958Z,1004.91
2019-01-28T05:39:28.943Z,1004.87
2019-01-28T05:40:28.931Z,1004.86
2019-01-28T05:41:28.915Z,1004.87
2019-01-28T05:42:28.900Z,1004.87
2019-01-28T05:43:28.888Z,1004.88
2019-01-28T05:44:28.876Z,1004.92
2019-01-28T05:45:28.861Z,1004.89
2019-01-28T05:46:28.848Z,1004.93
2019-01-28T05:47:28.834Z,1004.9
2019-01-28T05:48:28.819Z,1004.94
2019-01-28T05:49:28.806Z,1004.88
2019-01-28T05:50:29.309Z,1004.86
2019-01-28T05:51:28.777Z,1004.84
2019-01-28T05:52:28.763Z,1004.88
2019-01-28T05:53:28.748Z,1004.88
2019-01-28T05:54:28.735Z,1004.92
2019-01-28T05:55:28.721Z,1004.98
2019-01-28T05:56:28.708Z,1005.07
2019-01-28T05:57:28.694Z,1005.17
2019-01-28T05:58:28.679Z,1005.28
2019-01-28T05:59:28.664Z,1005.36
2019-01-28T06:00:28.654Z,1005.35
2019-01-28T06:01:28.638Z,1005.41
2019-01-28T06:02:28.627Z,1005.42
2019-01-28T06:03:28.620Z,1005.47
2019-01-28T06:04:28.599Z,1005.53
2019-01-28T06:05:28.581Z,1005.57
2019-01-28T06:06:28.568Z,1005.67
2019-01-28T06:07:28.554Z,1005.74
2019-01-28T06:08:28.539Z,1005.86
2019-01-28T06:09:28.525Z,1005.93
2019-01-28T06:10:28.511Z,1005.94
2019-01-28T06:11:28.497Z,1005.93
2019-01-28T06:12:28.484Z,1005.94
2019-01-28T06:13:28.474Z,1005.96
2019-01-28T06:14:28.459Z,1006.07
2019-01-28T06:15:28.441Z,1006.07
2019-01-28T06:16:28.434Z,1006.06
2019-01-28T06:17:28.411Z,1006.11
2019-01-28T06:18:28.398Z,1006.11
2019-01-28T06:19:28.383Z,1006.19
2019-01-28T06:20:28.369Z,1006.29
2019-01-28T06:21:28.355Z,1006.27
2019-01-28T06:22:28.342Z,1006.32
2019-01-28T06:23:28.325Z,1006.33
2019-01-28T06:24:28.309Z,1006.33
2019-01-28T06:25:28.296Z,1006.4
2019-01-28T06:26:28.281Z,1006.4
2019-01-28T06:27:28.267Z,1006.49
2019-01-28T06:28:28.251Z,1006.49
2019-01-28T06:29:28.236Z,1006.52
2019-01-28T06:30:28.221Z,1006.54
2019-01-28T06:31:28.206Z,1006.59
2019-01-28T06:32:28.193Z,1006.65
2019-01-28T06:33:28.178Z,1006.63
2019-01-28T06:34:28.162Z,1006.73
2019-01-28T06:35:28.148Z,1006.74
2019-01-28T06:36:28.131Z,1006.82
2019-01-28T06:37:28.116Z,1006.84
2019-01-28T06:38:28.101Z,1006.86
2019-01-28T06:39:28.086Z,1006.93
2019-01-28T06:40:28.072Z,1006.92
2019-01-28T06:41:28.057Z,1006.96
2019-01-28T06:42:28.041Z,1006.93
2019-01-28T06:43:28.026Z,1006.99
2019-01-28T06:44:28.014Z,1007.01
2019-01-28T06:45:27.994Z,1007.01
2019-01-28T06:46:27.980Z,1007.05
2019-01-28T06:47:27.965Z,1007.05
2019-01-28T06:48:27.949Z,1007.1
2019-01-28T06:49:27.934Z,1007.14
2019-01-28T06:50:27.917Z,1007.2
2019-01-28T06:51:27.902Z,1007.17
2019-01-28T06:52:27.887Z,1007.18
2019-01-28T06:53:27.872Z,1007.21
2019-01-28T06:54:27.857Z,1007.24
2019-01-28T06:55:27.840Z,1007.23
2019-01-28T06:56:27.823Z,1007.2
2019-01-28T06:57:27.810Z,1007.19
2019-01-28T06:58:27.793Z,1007.24
2019-01-28T06:59:27.777Z,1007.25
2019-01-28T07:00:27.763Z,1007.2
2019-01-28T07:01:27.746Z,1007.23
2019-01-28T07:02:27.734Z,1007.25
2019-01-28T07:03:27.713Z,1007.26
2019-01-28T07:04:27.700Z,1007.28
2019-01-28T07:05:27.684Z,1007.27
2019-01-28T07:06:27.669Z,1007.26
2019-01-28T07:07:27.654Z,1007.26
2019-01-28T07:08:27.635Z,1007.29
2019-01-28T07:09:27.620Z,1007.27
2019-01-28T07:10:27.604Z,1007.35
2019-01-28T07:11:27.588Z,1007.34
2019-01-28T07:12:27.573Z,1007.34
2019-01-28T07:13:27.558Z,1007.35
2019-01-28T07:14:27.541Z,1007.31
2019-01-28T07:15:27.525Z,1007.3
2019-01-28T07:16:27.511Z,1007.31
2019-01-28T07:17:27.512Z,1007.33
2019-01-28T07:18:27.477Z,1007.27
2019-01-28T07:19:29.339Z,1007.27
2019-01-28T07:20:27.446Z,1007.27
2019-01-28T07:21:27.429Z,1007.28
2019-01-28T07:22:27.413Z,1007.29
2019-01-28T07:23:27.399Z,1007.32
2019-01-28T07:24:27.382Z,1007.26
2019-01-28T07:25:27.365Z,1007.25
2019-01-28T07:26:27.350Z,1007.21
2019-01-28T07:27:27.335Z,1007.2
2019-01-28T07:28:27.318Z,1007.17
2019-01-28T07:29:27.302Z,1007.1
2019-01-28T07:30:27.286Z,1007.04
2019-01-28T07:31:27.271Z,1006.99
2019-01-28T07:32:27.264Z,1006.98
2019-01-28T07:33:27.238Z,1006.93
2019-01-28T07:34:27.222Z,1006.95
2019-01-28T07:35:27.207Z,1007.01
2019-01-28T07:36:27.191Z,1007.07
2019-01-28T07:37:27.176Z,1007.14
2019-01-28T07:38:27.161Z,1007.14
2019-01-28T07:39:27.144Z,1007.17
2019-01-28T07:40:27.128Z,1007.15
2019-01-28T07:41:27.112Z,1007.16
2019-01-28T07:42:27.098Z,1007.14
2019-01-28T07:43:27.081Z,1007.19
2019-01-28T07:44:27.066Z,1007.18
2019-01-28T07:45:27.049Z,1007.21
2019-01-28T07:46:27.035Z,1007.22
2019-01-28T07:47:27.019Z,1007.21
2019-01-28T07:48:27.009Z,1007.18
2019-01-28T07:49:26.989Z,1007.19
2019-01-28T07:50:26.976Z,1007.15
2019-01-28T07:51:26.960Z,1007.13
2019-01-28T07:52:26.941Z,1007.1
2019-01-28T07:53:26.926Z,1007.07
2019-01-28T07:54:26.911Z,1007.05
2019-01-28T07:55:26.896Z,1007.04
2019-01-28T07:56:26.879Z,1007.03
2019-01-28T07:57:26.864Z,1007.06
2019-01-28T07:58:26.847Z,1007.02
2019-01-28T07:59:26.832Z,1007.04
2019-01-28T08:00:26.818Z,1007.02
2019-01-28T08:01:26.802Z,1006.97
2019-01-28T08:02:26.786Z,1006.94
2019-01-28T08:03:26.771Z,1006.95
2019-01-28T08:04:26.755Z,1006.92
2019-01-28T08:05:26.742Z,1006.88
2019-01-28T08:06:26.723Z,1006.91
2019-01-28T08:07:26.709Z,1006.91
2019-01-28T08:08:26.692Z,1006.91
2019-01-28T08:09:26.677Z,1006.9
2019-01-28T08:10:26.663Z,1006.91
2019-01-28T08:11:26.647Z,1006.91
2019-01-28T08:12:26.632Z,1006.92
2019-01-28T08:13:26.617Z,1006.93
2019-01-28T08:14:26.602Z,1006.92
2019-01-28T08:15:26.586Z,1006.91
2019-01-28T08:16:26.569Z,1006.89
2019-01-28T08:17:26.555Z,1006.91
2019-01-28T08:18:26.540Z,1006.89
2019-01-28T08:19:26.524Z,1006.89
2019-01-28T08:20:26.509Z,1006.92
2019-01-28T08:21:26.494Z,1006.85
2019-01-28T08:22:26.480Z,1006.83
2019-01-28T08:23:26.463Z,1006.85
2019-01-28T08:24:26.447Z,1006.82
2019-01-28T08:25:26.433Z,1006.83
2019-01-28T08:26:26.417Z,1006.82
2019-01-28T08:27:26.401Z,1006.76
2019-01-28T08:28:26.388Z,1006.71
2019-01-28T08:29:26.373Z,1006.69
2019-01-28T08:30:26.405Z,1006.67
2019-01-28T08:31:26.342Z,1006.63
2019-01-28T08:32:26.327Z,1006.62
2019-01-28T08:33:26.313Z,1006.64
2019-01-28T08:34:26.312Z,1006.61
2019-01-28T08:35:26.282Z,1006.62
2019-01-28T08:36:26.269Z,1006.58
2019-01-28T08:37:26.251Z,1006.59
2019-01-28T08:38:26.235Z,1006.61
2019-01-28T08:39:26.221Z,1006.58
2019-01-28T08:40:26.207Z,1006.52
2019-01-28T08:41:26.192Z,1006.55
2019-01-28T08:42:26.176Z,1006.44
2019-01-28T08:43:26.163Z,1006.45
2019-01-28T08:44:26.147Z,1006.41
2019-01-28T08:45:26.130Z,1006.4
2019-01-28T08:46:30.199Z,1006.42
2019-01-28T08:47:26.102Z,1006.38
2019-01-28T08:48:26.086Z,1006.39
2019-01-28T08:49:26.071Z,1006.32
2019-01-28T08:50:26.057Z,1006.33
2019-01-28T08:51:26.042Z,1006.38
2019-01-28T08:52:26.027Z,1006.39
2019-01-28T08:53:26.013Z,1006.36
2019-01-28T08:54:25.999Z,1006.31
2019-01-28T08:55:25.984Z,1006.29
2019-01-28T08:56:25.968Z,1006.3
2019-01-28T08:57:25.953Z,1006.29
2019-01-28T08:58:25.939Z,1006.32
2019-01-28T08:59:25.925Z,1006.29
2019-01-28T09:00:25.908Z,1006.3
2019-01-28T09:01:25.906Z,1006.31
2019-01-28T09:02:25.881Z,1006.34
2019-01-28T09:03:25.864Z,1006.32
2019-01-28T09:04:25.851Z,1006.32
2019-01-28T09:05:25.837Z,1006.36
2019-01-28T09:06:25.822Z,1006.31
2019-01-28T09:07:25.807Z,1006.32
2019-01-28T09:08:25.791Z,1006.36
2019-01-28T09:09:25.778Z,1006.37
2019-01-28T09:10:25.763Z,1006.37
2019-01-28T09:11:25.749Z,1006.35
2019-01-28T09:12:25.733Z,1006.33
2019-01-28T09:13:25.720Z,1006.3
2019-01-28T09:14:25.704Z,1006.27
2019-01-28T09:15:25.690Z,1006.24
2019-01-28T09:16:25.676Z,1006.25
2019-01-28T09:17:25.668Z,1006.19
2019-01-28T09:18:26.344Z,1006.23
2019-01-28T09:19:25.634Z,1006.24
2019-01-28T09:20:25.618Z,1006.23
2019-01-28T09:21:25.604Z,1006.21
2019-01-28T09:22:25.591Z,1006.16
2019-01-28T09:23:25.576Z,1006.16
2019-01-28T09:24:25.562Z,1006.15
2019-01-28T09:25:25.547Z,1006.15
2019-01-28T09:26:25.833Z,1006.13
2019-01-28T09:27:25.520Z,1006.14
2019-01-28T09:28:25.506Z,1006.09
2019-01-28T09:29:25.494Z,1006.1
2019-01-28T09:30:25.477Z,1006.06
2019-01-28T09:31:25.464Z,1006.04
2019-01-28T09:32:25.448Z,1006
2019-01-28T09:33:25.434Z,1006
2019-01-28T09:34:25.440Z,1005.95
2019-01-28T09:35:25.405Z,1005.99
2019-01-28T09:36:25.392Z,1005.95
2019-01-28T09:37:25.377Z,1005.93
2019-01-28T09:38:25.363Z,1005.93
2019-01-28T09:39:25.350Z,1005.87
2019-01-28T09:40:25.336Z,1005.83
2019-01-28T09:41:25.322Z,1005.86
2019-01-28T09:42:25.309Z,1005.81
2019-01-28T09:43:26.548Z,1005.73
2019-01-28T09:44:25.279Z,1005.78
2019-01-28T09:45:25.265Z,1005.76
2019-01-28T09:46:25.256Z,1005.75
2019-01-28T09:47:25.240Z,1005.74
2019-01-28T09:48:25.224Z,1005.77
2019-01-28T09:49:25.211Z,1005.71
2019-01-28T09:50:25.198Z,1005.69
2019-01-28T09:51:25.182Z,1005.7
2019-01-28T09:52:25.168Z,1005.69
2019-01-28T09:53:29.306Z,1005.68
2019-01-28T09:54:25.141Z,1005.69
2019-01-28T09:55:25.129Z,1005.66
2019-01-28T09:56:25.114Z,1005.66
2019-01-28T09:57:25.101Z,1005.73
2019-01-28T09:58:25.088Z,1005.67
2019-01-28T09:59:25.072Z,1005.67
2019-01-28T10:00:26.366Z,1005.64
2019-01-28T10:01:25.048Z,1005.6
2019-01-28T10:02:25.032Z,1005.6
2019-01-28T10:03:25.019Z,1005.63
2019-01-28T10:04:25.004Z,1005.6
2019-01-28T10:05:24.990Z,1005.61
2019-01-28T10:06:24.977Z,1005.6
2019-01-28T10:07:24.963Z,1005.62
2019-01-28T10:08:24.951Z,1005.58
2019-01-28T10:09:24.937Z,1005.57
2019-01-28T10:10:24.924Z,1005.6
2019-01-28T10:11:24.911Z,1005.58
2019-01-28T10:12:24.896Z,1005.61
2019-01-28T10:13:24.882Z,1005.62
2019-01-28T10:14:24.871Z,1005.61
2019-01-28T10:15:28.597Z,1005.63
2019-01-28T10:16:24.842Z,1005.62
2019-01-28T10:17:24.829Z,1005.62
2019-01-28T10:18:24.816Z,1005.62
2019-01-28T10:19:24.804Z,1005.62
2019-01-28T10:20:24.791Z,1005.62
2019-01-28T10:21:24.776Z,1005.6
2019-01-28T10:22:24.764Z,1005.64
2019-01-28T10:23:26.086Z,1005.56
2019-01-28T10:24:24.737Z,1005.48
2019-01-28T10:25:24.722Z,1005.51
2019-01-28T10:26:24.709Z,1005.51
2019-01-28T10:27:24.700Z,1005.51
2019-01-28T10:28:24.682Z,1005.48
2019-01-28T10:29:24.670Z,1005.45
2019-01-28T10:30:24.657Z,1005.41
2019-01-28T10:31:24.642Z,1005.37
2019-01-28T10:32:24.630Z,1005.37
2019-01-28T10:33:24.617Z,1005.34
2019-01-28T10:34:24.604Z,1005.3
2019-01-28T10:35:24.595Z,1005.31
2019-01-28T10:36:24.576Z,1005.29
2019-01-28T10:37:24.565Z,1005.32
2019-01-28T10:38:24.550Z,1005.3
2019-01-28T10:39:24.537Z,1005.3
2019-01-28T10:40:24.525Z,1005.27
2019-01-28T10:41:24.511Z,1005.29
2019-01-28T10:42:24.502Z,1005.3
2019-01-28T10:43:24.484Z,1005.28
2019-01-28T10:44:24.476Z,1005.28
2019-01-28T10:45:24.460Z,1005.26
2019-01-28T10:46:24.447Z,1005.28
2019-01-28T10:47:24.434Z,1005.23
2019-01-28T10:48:24.420Z,1005.23
2019-01-28T10:49:24.407Z,1005.22
2019-01-28T10:50:24.394Z,1005.26
2019-01-28T10:51:24.381Z,1005.28
2019-01-28T10:52:24.369Z,1005.14
2019-01-28T10:53:24.356Z,1005.2
2019-01-28T10:54:24.342Z,1005.2
2019-01-28T10:55:24.329Z,1005.25
2019-01-28T10:56:24.318Z,1005.22
2019-01-28T10:57:24.305Z,1005.22
2019-01-28T10:58:24.292Z,1005.17
2019-01-28T10:59:24.282Z,1005.15
2019-01-28T11:00:24.265Z,1005.16
2019-01-28T11:01:24.253Z,1005.16
2019-01-28T11:02:24.240Z,1005.18
2019-01-28T11:03:24.227Z,1005.15
2019-01-28T11:04:24.215Z,1005.14
2019-01-28T11:05:24.203Z,1005.14
2019-01-28T11:06:24.188Z,1005.19
2019-01-28T11:07:24.174Z,1005.15
2019-01-28T11:08:24.163Z,1005.2
2019-01-28T11:09:24.223Z,1005.18
2019-01-28T11:10:24.139Z,1005.22
2019-01-28T11:11:24.163Z,1005.17
2019-01-28T11:12:24.146Z,1005.16
2019-01-28T11:13:24.194Z,1005.15
2019-01-28T11:14:24.179Z,1005.12
2019-01-28T11:15:24.072Z,1005.12
2019-01-28T11:16:24.074Z,1005.07
2019-01-28T11:17:24.131Z,1005.02
2019-01-28T11:18:24.135Z,1004.9
2019-01-28T11:19:24.130Z,1004.75
2019-01-28T11:20:24.008Z,1004.68
2019-01-28T11:21:24.044Z,1004.56
2019-01-28T11:22:23.982Z,1004.49
2019-01-28T11:23:24.078Z,1004.4
2019-01-28T11:24:23.973Z,1004.34
2019-01-28T11:25:24.070Z,1004.31
2019-01-28T11:26:24.069Z,1004.2
2019-01-28T11:27:24.048Z,1004.1
2019-01-28T11:28:23.927Z,1003.96
2019-01-28T11:29:23.911Z,1003.83
2019-01-28T11:30:23.909Z,1003.78
2019-01-28T11:31:23.900Z,1003.75
2019-01-28T11:32:23.865Z,1003.66
2019-01-28T11:33:23.981Z,1003.64
2019-01-28T11:34:23.837Z,1003.66
2019-01-28T11:35:23.832Z,1003.61
2019-01-28T11:36:23.894Z,1003.63
2019-01-28T11:37:23.949Z,1003.64
2019-01-28T11:38:23.835Z,1003.65
2019-01-28T11:39:23.835Z,1003.66
2019-01-28T11:40:23.795Z,1003.66
2019-01-28T11:41:23.913Z,1003.74
2019-01-28T11:42:23.742Z,1003.69
2019-01-28T11:43:23.891Z,1003.79
2019-01-28T11:44:23.721Z,1003.8
2019-01-28T11:45:23.735Z,1003.82
2019-01-28T11:46:23.748Z,1003.83
2019-01-28T11:47:23.684Z,1003.81
2019-01-28T11:48:23.755Z,1003.81
2019-01-28T11:49:23.775Z,1003.72
2019-01-28T11:50:23.650Z,1003.69
2019-01-28T11:51:23.638Z,1003.7
2019-01-28T11:52:23.626Z,1003.66
2019-01-28T11:53:23.615Z,1003.58
2019-01-28T11:54:23.605Z,1003.59
2019-01-28T11:55:23.592Z,1003.56
2019-01-28T11:56:23.582Z,1003.54
2019-01-28T11:57:23.572Z,1003.56
2019-01-28T11:58:23.561Z,1003.58
2019-01-28T11:59:23.562Z,1003.54
2019-01-28T12:00:23.547Z,1003.53
2019-01-28T12:01:23.527Z,1003.5
2019-01-28T12:02:23.515Z,1003.5
2019-01-28T12:03:23.504Z,1003.48
2019-01-28T12:04:23.512Z,1003.5
2019-01-28T12:05:23.485Z,1003.49
2019-01-28T12:06:23.469Z,1003.52
2019-01-28T12:07:23.458Z,1003.47
2019-01-28T12:08:23.448Z,1003.43